sensor_id;sensor_type;location;lat;lon;timestamp;pressure;altitude;pressure_sealevel;temperature;humidity
14594;BME280;7383;52.354;9.756;2023-03-09T00:01:16;65156.72;;;-143.30;100.00
14594;BME280;7383;52.354;9.756;2023-03-09T00:03:44;65156.72;;;-143.30;100.00
14594;BME280;7383;52.354;9.756;2023-03-09T00:06:11;65156.72;;;-143.30;100.00
14594;BME280;7383;52.354;9.756;2023-03-09T00:08:38;65156.72;;;-143.30;100.00
14594;BME280;7383;52.354;9.756;2023-03-09T00:11:05;65156.72;;;-143.30;100.00
14594;BME280;7383;52.354;9.756;2023-03-09T00:13:32;65156.72;;;-143.30;100.00
14594;BME280;7383;52.354;9.756;2023-03-09T00:16:07;65156.72;;;-143.30;100.00
14594;BME280;7383;52.354;9.756;2023-03-09T00:18:34;65156.72;;;-143.30;100.00
14594;BME280;7383;52.354;9.756;2023-03-09T00:21:03;65156.72;;;-143.30;100.00
14594;BME280;7383;52.354;9.756;2023-03-09T00:23:30;65156.72;;;-143.30;100.00
14594;BME280;7383;52.354;9.756;2023-03-09T00:26:01;65156.72;;;-143.30;100.00
14594;BME280;7383;52.354;9.756;2023-03-09T00:28:28;65156.72;;;-143.30;100.00
14594;BME280;7383;52.354;9.756;2023-03-09T00:30:59;65156.72;;;-143.30;100.00
14594;BME280;7383;52.354;9.756;2023-03-09T00:33:25;65156.72;;;-143.30;100.00
14594;BME280;7383;52.354;9.756;2023-03-09T00:35:52;65156.72;;;-143.30;100.00
14594;BME280;7383;52.354;9.756;2023-03-09T00:38:20;65156.72;;;-143.30;100.00
14594;BME280;7383;52.354;9.756;2023-03-09T00:40:46;65156.72;;;-143.30;100.00
14594;BME280;7383;52.354;9.756;2023-03-09T00:43:13;65156.72;;;-143.30;100.00
14594;BME280;7383;52.354;9.756;2023-03-09T00:45:39;65156.72;;;-143.30;100.00
14594;BME280;7383;52.354;9.756;2023-03-09T00:48:06;65156.72;;;-143.30;100.00
14594;BME280;7383;52.354;9.756;2023-03-09T00:50:32;65156.72;;;-143.30;100.00
14594;BME280;7383;52.354;9.756;2023-03-09T00:52:59;65156.72;;;-143.30;100.00
14594;BME280;7383;52.354;9.756;2023-03-09T00:55:27;65156.72;;;-143.30;100.00
14594;BME280;7383;52.354;9.756;2023-03-09T00:57:54;65156.72;;;-143.30;100.00
14594;BME280;7383;52.354;9.756;2023-03-09T01:00:21;65156.72;;;-143.30;100.00
14594;BME280;7383;52.354;9.756;2023-03-09T01:02:47;65156.72;;;-143.30;100.00
14594;BME280;7383;52.354;9.756;2023-03-09T01:05:14;65156.72;;;-143.30;100.00
14594;BME280;7383;52.354;9.756;2023-03-09T01:07:40;65156.72;;;-143.30;100.00
14594;BME280;7383;52.354;9.756;2023-03-09T01:10:09;65156.72;;;-143.30;100.00
14594;BME280;7383;52.354;9.756;2023-03-09T01:12:38;65156.72;;;-143.30;100.00
14594;BME280;7383;52.354;9.756;2023-03-09T01:15:05;65156.72;;;-143.30;100.00
14594;BME280;7383;52.354;9.756;2023-03-09T01:17:32;65156.72;;;-143.30;100.00
14594;BME280;7383;52.354;9.756;2023-03-09T01:20:02;65156.72;;;-143.30;100.00
14594;BME280;7383;52.354;9.756;2023-03-09T01:22:29;65156.72;;;-143.30;100.00
14594;BME280;7383;52.354;9.756;2023-03-09T01:24:56;65156.72;;;-143.30;100.00
14594;BME280;7383;52.354;9.756;2023-03-09T01:27:23;65156.72;;;-143.30;100.00
14594;BME280;7383;52.354;9.756;2023-03-09T01:29:50;65156.72;;;-143.30;100.00
14594;BME280;7383;52.354;9.756;2023-03-09T01:32:17;65156.72;;;-143.30;100.00
14594;BME280;7383;52.354;9.756;2023-03-09T01:34:44;65156.72;;;-143.30;100.00
14594;BME280;7383;52.354;9.756;2023-03-09T01:37:10;65156.72;;;-143.30;100.00
14594;BME280;7383;52.354;9.756;2023-03-09T01:39:37;65156.72;;;-143.30;100.00
14594;BME280;7383;52.354;9.756;2023-03-09T01:42:03;65156.72;;;-143.30;100.00
14594;BME280;7383;52.354;9.756;2023-03-09T01:44:30;65156.72;;;-143.30;100.00
14594;BME280;7383;52.354;9.756;2023-03-09T01:46:57;65156.72;;;-143.30;100.00
14594;BME280;7383;52.354;9.756;2023-03-09T01:49:29;65156.72;;;-143.30;100.00
14594;BME280;7383;52.354;9.756;2023-03-09T01:52:01;65156.72;;;-143.30;100.00
14594;BME280;7383;52.354;9.756;2023-03-09T01:54:33;65156.72;;;-143.30;100.00
14594;BME280;7383;52.354;9.756;2023-03-09T01:57:05;65156.72;;;-143.30;100.00
14594;BME280;7383;52.354;9.756;2023-03-09T01:59:32;65156.72;;;-143.30;100.00
14594;BME280;7383;52.354;9.756;2023-03-09T02:02:01;65156.72;;;-143.30;100.00
14594;BME280;7383;52.354;9.756;2023-03-09T02:04:32;65156.72;;;-143.30;100.00
14594;BME280;7383;52.354;9.756;2023-03-09T02:07:01;65156.72;;;-143.30;100.00
14594;BME280;7383;52.354;9.756;2023-03-09T02:09:32;65156.72;;;-143.30;100.00
14594;BME280;7383;52.354;9.756;2023-03-09T02:12:04;65156.72;;;-143.30;100.00
14594;BME280;7383;52.354;9.756;2023-03-09T02:14:32;65156.72;;;-143.30;100.00
14594;BME280;7383;52.354;9.756;2023-03-09T02:16:58;65156.72;;;-143.30;100.00
14594;BME280;7383;52.354;9.756;2023-03-09T02:19:40;65156.72;;;-143.30;100.00
14594;BME280;7383;52.354;9.756;2023-03-09T02:22:10;65156.72;;;-143.30;100.00
14594;BME280;7383;52.354;9.756;2023-03-09T02:24:44;65156.72;;;-143.30;100.00
14594;BME280;7383;52.354;9.756;2023-03-09T02:27:24;65156.72;;;-143.30;100.00
14594;BME280;7383;52.354;9.756;2023-03-09T02:29:52;65156.72;;;-143.30;100.00
14594;BME280;7383;52.354;9.756;2023-03-09T02:32:19;65156.72;;;-143.30;100.00
14594;BME280;7383;52.354;9.756;2023-03-09T02:34:46;65156.72;;;-143.30;100.00
14594;BME280;7383;52.354;9.756;2023-03-09T02:37:29;65156.72;;;-143.30;100.00
14594;BME280;7383;52.354;9.756;2023-03-09T02:39:59;65156.72;;;-143.30;100.00
14594;BME280;7383;52.354;9.756;2023-03-09T02:42:30;65156.72;;;-143.30;100.00
14594;BME280;7383;52.354;9.756;2023-03-09T02:44:57;65156.72;;;-143.30;100.00
14594;BME280;7383;52.354;9.756;2023-03-09T04:29:40;65156.72;;;-143.30;100.00
14594;BME280;7383;52.354;9.756;2023-03-09T04:32:55;65156.72;;;-143.30;100.00
14594;BME280;7383;52.354;9.756;2023-03-09T04:35:25;65156.72;;;-143.30;100.00
14594;BME280;7383;52.354;9.756;2023-03-09T04:37:53;65156.72;;;-143.30;100.00
14594;BME280;7383;52.354;9.756;2023-03-09T04:40:28;65156.72;;;-143.30;100.00
14594;BME280;7383;52.354;9.756;2023-03-09T04:43:09;65156.72;;;-143.30;100.00
14594;BME280;7383;52.354;9.756;2023-03-09T04:45:42;65156.72;;;-143.30;100.00
14594;BME280;7383;52.354;9.756;2023-03-09T04:48:57;65156.72;;;-143.30;100.00
14594;BME280;7383;52.354;9.756;2023-03-09T04:52:16;65156.72;;;-143.30;100.00
14594;BME280;7383;52.354;9.756;2023-03-09T04:54:36;65156.72;;;-143.30;100.00
14594;BME280;7383;52.354;9.756;2023-03-09T04:57:08;65156.72;;;-143.30;100.00
14594;BME280;7383;52.354;9.756;2023-03-09T05:28:02;65156.72;;;-143.30;100.00
14594;BME280;7383;52.354;9.756;2023-03-09T05:50:21;65156.72;;;-143.30;100.00
14594;BME280;7383;52.354;9.756;2023-03-09T06:22:17;65156.72;;;-143.30;100.00
14594;BME280;7383;52.354;9.756;2023-03-09T06:25:11;65156.72;;;-143.30;100.00
14594;BME280;7383;52.354;9.756;2023-03-09T06:38:08;65156.72;;;-143.30;100.00
14594;BME280;7383;52.354;9.756;2023-03-09T06:40:58;65156.72;;;-143.30;100.00
14594;BME280;7383;52.354;9.756;2023-03-09T06:43:32;65156.72;;;-143.30;100.00
14594;BME280;7383;52.354;9.756;2023-03-09T06:45:58;65156.72;;;-143.30;100.00
14594;BME280;7383;52.354;9.756;2023-03-09T06:49:06;65156.72;;;-143.30;100.00
14594;BME280;7383;52.354;9.756;2023-03-09T06:51:36;65156.72;;;-143.30;100.00
14594;BME280;7383;52.354;9.756;2023-03-09T06:54:04;65156.72;;;-143.30;100.00
14594;BME280;7383;52.354;9.756;2023-03-09T06:56:31;65156.72;;;-143.30;100.00
14594;BME280;7383;52.354;9.756;2023-03-09T06:58:59;65156.72;;;-143.30;100.00
14594;BME280;7383;52.354;9.756;2023-03-09T07:01:27;65156.72;;;-143.30;100.00
14594;BME280;7383;52.354;9.756;2023-03-09T07:03:55;65156.72;;;-143.30;100.00
14594;BME280;7383;52.354;9.756;2023-03-09T07:06:21;65156.72;;;-143.30;100.00
14594;BME280;7383;52.354;9.756;2023-03-09T07:08:48;65156.72;;;-143.30;100.00
14594;BME280;7383;52.354;9.756;2023-03-09T07:11:20;65156.72;;;-143.30;100.00
14594;BME280;7383;52.354;9.756;2023-03-09T07:13:47;65156.72;;;-143.30;100.00
14594;BME280;7383;52.354;9.756;2023-03-09T07:16:21;65156.72;;;-143.30;100.00
14594;BME280;7383;52.354;9.756;2023-03-09T07:18:48;65156.72;;;-143.30;100.00
14594;BME280;7383;52.354;9.756;2023-03-09T07:21:14;65156.72;;;-143.30;100.00
14594;BME280;7383;52.354;9.756;2023-03-09T07:23:41;65156.72;;;-143.30;100.00
14594;BME280;7383;52.354;9.756;2023-03-09T07:26:08;65156.72;;;-143.30;100.00
14594;BME280;7383;52.354;9.756;2023-03-09T07:28:35;65156.72;;;-143.30;100.00
14594;BME280;7383;52.354;9.756;2023-03-09T07:31:06;65156.72;;;-143.30;100.00
14594;BME280;7383;52.354;9.756;2023-03-09T07:33:33;65156.72;;;-143.30;100.00
14594;BME280;7383;52.354;9.756;2023-03-09T07:36:01;65156.72;;;-143.30;100.00
14594;BME280;7383;52.354;9.756;2023-03-09T07:38:28;65156.72;;;-143.30;100.00
14594;BME280;7383;52.354;9.756;2023-03-09T07:40:56;65156.72;;;-143.30;100.00
14594;BME280;7383;52.354;9.756;2023-03-09T07:43:23;65156.72;;;-143.30;100.00
14594;BME280;7383;52.354;9.756;2023-03-09T07:45:51;65156.72;;;-143.30;100.00
14594;BME280;7383;52.354;9.756;2023-03-09T07:48:17;65156.72;;;-143.30;100.00
14594;BME280;7383;52.354;9.756;2023-03-09T07:50:44;65156.72;;;-143.30;100.00
14594;BME280;7383;52.354;9.756;2023-03-09T07:53:10;65156.72;;;-143.30;100.00
14594;BME280;7383;52.354;9.756;2023-03-09T07:55:37;65156.72;;;-143.30;100.00
14594;BME280;7383;52.354;9.756;2023-03-09T07:58:04;65156.72;;;-143.30;100.00
14594;BME280;7383;52.354;9.756;2023-03-09T08:00:30;65156.72;;;-143.30;100.00
14594;BME280;7383;52.354;9.756;2023-03-09T08:02:59;65156.72;;;-143.30;100.00
14594;BME280;7383;52.354;9.756;2023-03-09T08:05:26;65156.72;;;-143.30;100.00
14594;BME280;7383;52.354;9.756;2023-03-09T08:07:52;65156.72;;;-143.30;100.00
14594;BME280;7383;52.354;9.756;2023-03-09T08:10:19;65156.72;;;-143.30;100.00
14594;BME280;7383;52.354;9.756;2023-03-09T08:12:47;65156.72;;;-143.30;100.00
14594;BME280;7383;52.354;9.756;2023-03-09T08:15:14;65156.72;;;-143.30;100.00
14594;BME280;7383;52.354;9.756;2023-03-09T08:17:40;65156.72;;;-143.30;100.00
14594;BME280;7383;52.354;9.756;2023-03-09T08:20:09;65156.72;;;-143.30;100.00
14594;BME280;7383;52.354;9.756;2023-03-09T08:22:36;65156.72;;;-143.30;100.00
14594;BME280;7383;52.354;9.756;2023-03-09T08:25:04;65156.72;;;-143.30;100.00
14594;BME280;7383;52.354;9.756;2023-03-09T08:27:37;65156.72;;;-143.30;100.00
14594;BME280;7383;52.354;9.756;2023-03-09T08:30:04;65156.72;;;-143.30;100.00
14594;BME280;7383;52.354;9.756;2023-03-09T08:32:30;65156.72;;;-143.30;100.00
14594;BME280;7383;52.354;9.756;2023-03-09T08:34:57;65156.72;;;-143.30;100.00
14594;BME280;7383;52.354;9.756;2023-03-09T08:37:27;65156.72;;;-143.30;100.00
14594;BME280;7383;52.354;9.756;2023-03-09T08:39:54;65156.72;;;-143.30;100.00
14594;BME280;7383;52.354;9.756;2023-03-09T08:42:21;65156.72;;;-143.30;100.00
14594;BME280;7383;52.354;9.756;2023-03-09T08:44:49;65156.72;;;-143.30;100.00
14594;BME280;7383;52.354;9.756;2023-03-09T08:47:15;65156.72;;;-143.30;100.00
14594;BME280;7383;52.354;9.756;2023-03-09T08:49:42;65156.72;;;-143.30;100.00
14594;BME280;7383;52.354;9.756;2023-03-09T08:52:08;65156.72;;;-143.30;100.00
14594;BME280;7383;52.354;9.756;2023-03-09T08:54:39;65156.72;;;-143.30;100.00
14594;BME280;7383;52.354;9.756;2023-03-09T08:57:07;65156.72;;;-143.30;100.00
14594;BME280;7383;52.354;9.756;2023-03-09T08:59:46;65156.72;;;-143.30;100.00
14594;BME280;7383;52.354;9.756;2023-03-09T09:02:13;65156.72;;;-143.30;100.00
14594;BME280;7383;52.354;9.756;2023-03-09T09:04:40;65156.72;;;-143.30;100.00
14594;BME280;7383;52.354;9.756;2023-03-09T09:07:09;65156.72;;;-143.30;100.00
14594;BME280;7383;52.354;9.756;2023-03-09T09:09:38;65156.72;;;-143.30;100.00
14594;BME280;7383;52.354;9.756;2023-03-09T09:12:05;65156.72;;;-143.30;100.00
14594;BME280;7383;52.354;9.756;2023-03-09T09:14:32;65156.72;;;-143.30;100.00
14594;BME280;7383;52.354;9.756;2023-03-09T09:16:58;65156.72;;;-143.30;100.00
14594;BME280;7383;52.354;9.756;2023-03-09T09:19:25;65156.72;;;-143.30;100.00
14594;BME280;7383;52.354;9.756;2023-03-09T09:21:51;65156.72;;;-143.30;100.00
14594;BME280;7383;52.354;9.756;2023-03-09T09:24:20;65156.72;;;-143.30;100.00
14594;BME280;7383;52.354;9.756;2023-03-09T09:26:48;65156.72;;;-143.30;100.00
14594;BME280;7383;52.354;9.756;2023-03-09T09:29:15;65156.72;;;-143.30;100.00
14594;BME280;7383;52.354;9.756;2023-03-09T09:31:42;65156.72;;;-143.30;100.00
14594;BME280;7383;52.354;9.756;2023-03-09T09:34:08;65156.72;;;-143.30;100.00
14594;BME280;7383;52.354;9.756;2023-03-09T09:36:35;65156.72;;;-143.30;100.00
14594;BME280;7383;52.354;9.756;2023-03-09T09:39:01;65156.72;;;-143.30;100.00
14594;BME280;7383;52.354;9.756;2023-03-09T09:41:37;65156.72;;;-143.30;100.00
14594;BME280;7383;52.354;9.756;2023-03-09T09:44:11;65156.72;;;-143.30;100.00
14594;BME280;7383;52.354;9.756;2023-03-09T09:46:39;-12567.13;;;6.40;100.00
14594;BME280;7383;52.354;9.756;2023-03-09T09:49:10;-12568.53;;;6.49;100.00
14594;BME280;7383;52.354;9.756;2023-03-09T09:51:50;-12569.41;;;6.54;100.00
14594;BME280;7383;52.354;9.756;2023-03-09T09:54:26;-12571.06;;;6.63;100.00
14594;BME280;7383;52.354;9.756;2023-03-09T09:56:57;-12570.09;;;6.58;100.00
14594;BME280;7383;52.354;9.756;2023-03-09T09:59:30;-12569.75;;;6.56;100.00
14594;BME280;7383;52.354;9.756;2023-03-09T10:02:05;-12570.03;;;6.57;100.00
14594;BME280;7383;52.354;9.756;2023-03-09T10:04:46;-12568.34;;;6.48;100.00
14594;BME280;7383;52.354;9.756;2023-03-09T10:07:17;-12566.59;;;6.37;100.00
14594;BME280;7383;52.354;9.756;2023-03-09T10:09:59;-12565.81;;;6.33;100.00
14594;BME280;7383;52.354;9.756;2023-03-09T10:12:28;-12565.28;;;6.30;100.00
14594;BME280;7383;52.354;9.756;2023-03-09T10:15:00;-12564.13;;;6.23;100.00
14594;BME280;7383;52.354;9.756;2023-03-09T10:17:33;-12565.28;;;6.30;100.00
14594;BME280;7383;52.354;9.756;2023-03-09T10:20:11;-12566.25;;;6.35;100.00
14594;BME280;7383;52.354;9.756;2023-03-09T10:22:39;-12566.25;;;6.35;100.00
14594;BME280;7383;52.354;9.756;2023-03-09T10:25:10;-12568.09;;;6.46;100.00
14594;BME280;7383;52.354;9.756;2023-03-09T10:27:41;-12569.66;;;6.55;100.00
14594;BME280;7383;52.354;9.756;2023-03-09T10:30:17;-12570.91;;;6.62;100.00
14594;BME280;7383;52.354;9.756;2023-03-09T10:32:50;-12572.03;;;6.69;100.00
14594;BME280;7383;52.354;9.756;2023-03-09T10:35:20;-12570.91;;;6.62;100.00
14594;BME280;7383;52.354;9.756;2023-03-09T10:37:49;-12571.69;;;6.67;100.00
14594;BME280;7383;52.354;9.756;2023-03-09T10:40:19;-12572.47;;;6.71;100.00
14594;BME280;7383;52.354;9.756;2023-03-09T10:42:47;-12573.72;;;6.78;100.00
14594;BME280;7383;52.354;9.756;2023-03-09T10:45:23;-12573.97;;;6.80;100.00
14594;BME280;7383;52.354;9.756;2023-03-09T10:47:55;-12573.88;;;6.79;100.00
14594;BME280;7383;52.354;9.756;2023-03-09T10:50:25;-12574.16;;;6.81;100.00
14594;BME280;7383;52.354;9.756;2023-03-09T10:52:53;-12574.59;;;6.83;100.00
14594;BME280;7383;52.354;9.756;2023-03-09T10:55:29;-12575.38;;;6.88;100.00
14594;BME280;7383;52.354;9.756;2023-03-09T10:57:58;-12575.22;;;6.87;100.00
14594;BME280;7383;52.354;9.756;2023-03-09T11:00:27;-12574.94;;;6.85;100.00
14594;BME280;7383;52.354;9.756;2023-03-09T11:02:57;-12575.72;;;6.90;100.00
14594;BME280;7383;52.354;9.756;2023-03-09T11:05:29;-12576.59;;;6.95;100.00
14594;BME280;7383;52.354;9.756;2023-03-09T11:07:57;-12574.75;;;6.84;100.00
14594;BME280;7383;52.354;9.756;2023-03-09T11:10:26;-12575.38;;;6.88;100.00
14594;BME280;7383;52.354;9.756;2023-03-09T11:12:53;-12576.44;;;6.94;100.00
14594;BME280;7383;52.354;9.756;2023-03-09T11:15:27;-12576.88;;;6.97;100.00
14594;BME280;7383;52.354;9.756;2023-03-09T11:17:55;-12576.53;;;6.94;100.00
14594;BME280;7383;52.354;9.756;2023-03-09T11:20:29;-12576.59;;;6.95;100.00
14594;BME280;7383;52.354;9.756;2023-03-09T11:23:16;-12576.97;;;6.97;100.00
14594;BME280;7383;52.354;9.756;2023-03-09T11:26:00;-12576.25;;;6.93;100.00
14594;BME280;7383;52.354;9.756;2023-03-09T11:28:46;-12575.47;;;6.88;100.00
14594;BME280;7383;52.354;9.756;2023-03-09T11:31:29;-12573.53;;;6.77;100.00
14594;BME280;7383;52.354;9.756;2023-03-09T11:42:45;-12572.22;;;6.70;100.00
14594;BME280;7383;52.354;9.756;2023-03-09T11:45:18;-12571.34;;;6.65;100.00
14594;BME280;7383;52.354;9.756;2023-03-09T11:48:00;-12570.47;;;6.60;100.00
14594;BME280;7383;52.354;9.756;2023-03-09T11:51:03;-12572.22;;;6.70;100.00
14594;BME280;7383;52.354;9.756;2023-03-09T11:54:17;-12571.69;;;6.67;100.00
14594;BME280;7383;52.354;9.756;2023-03-09T12:07:41;-12569.94;;;6.57;100.00
14594;BME280;7383;52.354;9.756;2023-03-09T12:10:14;-12568.53;;;6.49;100.00
14594;BME280;7383;52.354;9.756;2023-03-09T12:12:48;-12567.56;;;6.43;100.00
14594;BME280;7383;52.354;9.756;2023-03-09T12:15:30;-12567.03;;;6.40;100.00
14594;BME280;7383;52.354;9.756;2023-03-09T12:22:11;-12565.72;;;6.32;100.00
14594;BME280;7383;52.354;9.756;2023-03-09T12:24:43;-12566.06;;;6.34;100.00
14594;BME280;7383;52.354;9.756;2023-03-09T12:28:05;-12567.38;;;6.42;100.00
14594;BME280;7383;52.354;9.756;2023-03-09T12:34:38;-12566.16;;;6.35;100.00
14594;BME280;7383;52.354;9.756;2023-03-09T12:38:03;-12567.66;;;6.43;100.00
14594;BME280;7383;52.354;9.756;2023-03-09T12:40:48;-12568.69;;;6.50;100.00
14594;BME280;7383;52.354;9.756;2023-03-09T13:30:47;-12569.94;;;6.57;100.00
14594;BME280;7383;52.354;9.756;2023-03-09T13:33:55;-12568.78;;;6.50;100.00
14594;BME280;7383;52.354;9.756;2023-03-09T13:36:30;-12568.19;;;6.47;100.00
14594;BME280;7383;52.354;9.756;2023-03-09T13:49:29;-12569.22;;;6.53;100.00
14594;BME280;7383;52.354;9.756;2023-03-09T13:53:27;-12568.19;;;6.47;100.00
14594;BME280;7383;52.354;9.756;2023-03-09T13:59:02;-12568.53;;;6.49;100.00
14594;BME280;7383;52.354;9.756;2023-03-09T14:08:18;-12568.63;;;6.49;100.00
14594;BME280;7383;52.354;9.756;2023-03-09T14:10:47;-12569.13;;;6.52;100.00
14594;BME280;7383;52.354;9.756;2023-03-09T14:13:16;-12568.44;;;6.48;100.00
14594;BME280;7383;52.354;9.756;2023-03-09T14:15:47;-12567.66;;;6.43;100.00
14594;BME280;7383;52.354;9.756;2023-03-09T14:18:23;-12568.34;;;6.48;100.00
14594;BME280;7383;52.354;9.756;2023-03-09T14:20:51;-12568.88;;;6.51;100.00
14594;BME280;7383;52.354;9.756;2023-03-09T14:23:32;-12569.75;;;6.56;100.00
14594;BME280;7383;52.354;9.756;2023-03-09T14:26:01;-12570.28;;;6.59;100.00
14594;BME280;7383;52.354;9.756;2023-03-09T14:28:31;-12570.38;;;6.59;100.00
14594;BME280;7383;52.354;9.756;2023-03-09T14:31:10;-12571.78;;;6.67;100.00
14594;BME280;7383;52.354;9.756;2023-03-09T14:33:39;-12571.69;;;6.67;100.00
14594;BME280;7383;52.354;9.756;2023-03-09T14:36:14;-12572.91;;;6.74;100.00
14594;BME280;7383;52.354;9.756;2023-03-09T14:38:52;-12571.69;;;6.67;100.00
14594;BME280;7383;52.354;9.756;2023-03-09T14:41:21;-12570.63;;;6.61;100.00
14594;BME280;7383;52.354;9.756;2023-03-09T14:43:50;-12571.69;;;6.67;100.00
14594;BME280;7383;52.354;9.756;2023-03-09T14:48:50;-12572.84;;;6.73;100.00
14594;BME280;7383;52.354;9.756;2023-03-09T14:51:21;-12574.69;;;6.84;100.00
14594;BME280;7383;52.354;9.756;2023-03-09T14:53:59;-12574.84;;;6.85;100.00
14594;BME280;7383;52.354;9.756;2023-03-09T14:56:36;-12573.63;;;6.78;100.00
14594;BME280;7383;52.354;9.756;2023-03-09T14:59:10;-12573.28;;;6.76;100.00
14594;BME280;7383;52.354;9.756;2023-03-09T15:01:38;-12572.75;;;6.73;100.00
14594;BME280;7383;52.354;9.756;2023-03-09T15:04:12;-12570.09;;;6.58;100.00
14594;BME280;7383;52.354;9.756;2023-03-09T15:06:56;-12569.50;;;6.54;100.00
14594;BME280;7383;52.354;9.756;2023-03-09T15:09:34;-12568.19;;;6.47;100.00
14594;BME280;7383;52.354;9.756;2023-03-09T15:12:04;-12567.47;;;6.42;100.00
14594;BME280;7383;52.354;9.756;2023-03-09T15:14:39;-12568.00;;;6.46;100.00
14594;BME280;7383;52.354;9.756;2023-03-09T15:19:25;-12569.22;;;6.53;100.00
14594;BME280;7383;52.354;9.756;2023-03-09T15:20:47;-12571.50;;;6.66;100.00
14594;BME280;7383;52.354;9.756;2023-03-09T15:23:02;-12572.56;;;6.72;100.00
14594;BME280;7383;52.354;9.756;2023-03-09T15:25:30;-12571.88;;;6.68;100.00
14594;BME280;7383;52.354;9.756;2023-03-09T15:28:05;-12572.31;;;6.70;100.00
14594;BME280;7383;52.354;9.756;2023-03-09T15:30:42;-12570.91;;;6.62;100.00
14594;BME280;7383;52.354;9.756;2023-03-09T15:33:09;-12569.13;;;6.52;100.00
14594;BME280;7383;52.354;9.756;2023-03-09T15:35:39;-12567.66;;;6.43;100.00
14594;BME280;7383;52.354;9.756;2023-03-09T15:38:10;-12567.81;;;6.44;100.00
14594;BME280;7383;52.354;9.756;2023-03-09T15:40:41;-12569.59;;;6.55;100.00
14594;BME280;7383;52.354;9.756;2023-03-09T15:43:09;-12570.19;;;6.58;100.00
14594;BME280;7383;52.354;9.756;2023-03-09T15:45:39;-12569.94;;;6.57;100.00
14594;BME280;7383;52.354;9.756;2023-03-09T15:48:08;-12570.47;;;6.60;100.00
14594;BME280;7383;52.354;9.756;2023-03-09T15:50:37;-12569.75;;;6.56;100.00
14594;BME280;7383;52.354;9.756;2023-03-09T15:53:15;-12569.84;;;6.56;100.00
14594;BME280;7383;52.354;9.756;2023-03-09T15:55:55;-12569.59;;;6.55;100.00
14594;BME280;7383;52.354;9.756;2023-03-09T15:58:22;-12568.88;;;6.51;100.00
14594;BME280;7383;52.354;9.756;2023-03-09T16:00:48;-12568.19;;;6.47;100.00
14594;BME280;7383;52.354;9.756;2023-03-09T16:03:15;-12567.81;;;6.44;100.00
14594;BME280;7383;52.354;9.756;2023-03-09T16:05:42;-12567.03;;;6.40;100.00
14594;BME280;7383;52.354;9.756;2023-03-09T16:08:08;-12566.69;;;6.38;100.00
14594;BME280;7383;52.354;9.756;2023-03-09T16:10:35;-12565.88;;;6.33;100.00
14594;BME280;7383;52.354;9.756;2023-03-09T16:13:02;-12565.72;;;6.32;100.00
14594;BME280;7383;52.354;9.756;2023-03-09T16:15:35;-12565.72;;;6.32;100.00
14594;BME280;7383;52.354;9.756;2023-03-09T16:18:01;-12565.00;;;6.28;100.00
14594;BME280;7383;52.354;9.756;2023-03-09T16:20:28;-12564.13;;;6.23;100.00
14594;BME280;7383;52.354;9.756;2023-03-09T16:22:54;-12563.34;;;6.19;100.00
14594;BME280;7383;52.354;9.756;2023-03-09T16:25:24;-12563.06;;;6.17;100.00
14594;BME280;7383;52.354;9.756;2023-03-09T16:27:55;-12562.19;;;6.12;100.00
14594;BME280;7383;52.354;9.756;2023-03-09T16:33:20;-12560.69;;;6.04;100.00
14594;BME280;7383;52.354;9.756;2023-03-09T16:35:55;-12560.63;;;6.03;100.00
14594;BME280;7383;52.354;9.756;2023-03-09T16:38:22;-12560.53;;;6.03;100.00
14594;BME280;7383;52.354;9.756;2023-03-09T16:40:49;-12560.09;;;6.00;100.00
14594;BME280;7383;52.354;9.756;2023-03-09T16:43:55;-12560.16;;;6.01;100.00
14594;BME280;7383;52.354;9.756;2023-03-09T16:52:36;-12560.16;;;6.01;100.00
14594;BME280;7383;52.354;9.756;2023-03-09T16:53:11;-12559.66;;;5.98;100.00
14594;BME280;7383;52.354;9.756;2023-03-09T16:55:38;-12559.03;;;5.94;100.00
14594;BME280;7383;52.354;9.756;2023-03-09T16:58:05;-12558.75;;;5.92;100.00
14594;BME280;7383;52.354;9.756;2023-03-09T17:00:31;-12558.31;;;5.90;100.00
14594;BME280;7383;52.354;9.756;2023-03-09T17:02:58;-12558.75;;;5.92;100.00
14594;BME280;7383;52.354;9.756;2023-03-09T17:05:26;-12557.88;;;5.87;100.00
14594;BME280;7383;52.354;9.756;2023-03-09T17:07:54;-12557.88;;;5.87;100.00
14594;BME280;7383;52.354;9.756;2023-03-09T17:10:20;-12558.06;;;5.88;100.00
14594;BME280;7383;52.354;9.756;2023-03-09T17:12:47;-12558.50;;;5.91;100.00
14594;BME280;7383;52.354;9.756;2023-03-09T17:15:14;-12557.63;;;5.86;100.00
14594;BME280;7383;52.354;9.756;2023-03-09T17:17:40;-12557.09;;;5.83;100.00
14594;BME280;7383;52.354;9.756;2023-03-09T17:20:08;-12557.78;;;5.87;100.00
14594;BME280;7383;52.354;9.756;2023-03-09T17:22:36;-12557.53;;;5.85;100.00
14594;BME280;7383;52.354;9.756;2023-03-09T17:25:04;-12557.25;;;5.84;100.00
14594;BME280;7383;52.354;9.756;2023-03-09T17:27:34;-12556.91;;;5.82;100.00
14594;BME280;7383;52.354;9.756;2023-03-09T17:30:02;-12556.66;;;5.80;100.00
14594;BME280;7383;52.354;9.756;2023-03-09T17:32:28;-12555.84;;;5.76;100.00
14594;BME280;7383;52.354;9.756;2023-03-09T17:34:56;-12555.41;;;5.73;100.00
14594;BME280;7383;52.354;9.756;2023-03-09T17:37:23;-12555.50;;;5.74;100.00
14594;BME280;7383;52.354;9.756;2023-03-09T17:39:51;-12555.41;;;5.73;100.00
14594;BME280;7383;52.354;9.756;2023-03-09T17:42:18;-12555.16;;;5.72;100.00
14594;BME280;7383;52.354;9.756;2023-03-09T17:44:44;65156.72;;;-143.30;100.00
14594;BME280;7383;52.354;9.756;2023-03-09T17:47:10;65156.72;;;-143.30;100.00
14594;BME280;7383;52.354;9.756;2023-03-09T17:49:37;65156.72;;;-143.30;100.00
14594;BME280;7383;52.354;9.756;2023-03-09T17:52:04;65156.72;;;-143.30;100.00
14594;BME280;7383;52.354;9.756;2023-03-09T17:54:31;65156.72;;;-143.30;100.00
14594;BME280;7383;52.354;9.756;2023-03-09T17:56:59;65156.72;;;-143.30;100.00
14594;BME280;7383;52.354;9.756;2023-03-09T17:59:27;65156.72;;;-143.30;100.00
14594;BME280;7383;52.354;9.756;2023-03-09T18:01:56;65156.72;;;-143.30;100.00
14594;BME280;7383;52.354;9.756;2023-03-09T18:04:24;65156.72;;;-143.30;100.00
14594;BME280;7383;52.354;9.756;2023-03-09T18:06:51;65156.72;;;-143.30;100.00
14594;BME280;7383;52.354;9.756;2023-03-09T18:09:18;65156.72;;;-143.30;100.00